Tuesday, February 20, 2018, 4:45 AM EST
Back to Local

KMLT, Millinocket Municipal Airport

Location: Millinocket, ME, United States Lat: 45.65
Local Time: 4:45 AM EST ( 9:45 GMT) Lon: -68.7
Time Zone: US/Eastern Elev: 406 ft

Show me the last for .
Show Decoded

2018-02-20 04:17 METAR KMLT 200917Z AUTO 00000KT 1 1/2SM -RA BR FEW003 BKN047 OVC055 01/01 A3025
                 RMK AO2 P0001 T00060006 =
2018-02-20 04:00 METAR KMLT 200900Z AUTO 00000KT 1SM -RA BR FEW003 OVC055 01/01 A3023 RMK AO2
                 P0000 T00060006 =
2018-02-20 03:53 METAR KMLT 200853Z AUTO 00000KT 3/4SM -RA BR FEW003 OVC055 01/01 A3024 RMK AO2
                 RAE22B46UPB43E46 SLP248 P0000 60001 T00060006 53007 =
2018-02-20 03:48 METAR KMLT 200848Z AUTO 00000KT 1SM -RA BR SCT003 OVC055 01/01 A3023 RMK AO2
                 RAE22B46UPB43E46 P0000 =
2018-02-20 02:53 METAR KMLT 200753Z AUTO 00000KT 1SM -RA BR BKN003 OVC060 01/01 A3022 RMK AO2
                 RAB40 SLP241 P0001 T00060006 =
2018-02-20 01:53 METAR KMLT 200653Z AUTO 00000KT 1/2SM FG OVC003 01/01 A3023 RMK AO2 SLP245
                 T00110011 =
2018-02-20 01:31 METAR KMLT 200631Z AUTO 00000KT 1 1/4SM BR OVC002 01/01 A3023 RMK AO2 T00060006
                 =
2018-02-20 01:23 METAR KMLT 200623Z AUTO 00000KT 3/4SM BR BKN002 BKN036 OVC060 01/01 A3023 RMK
                 AO2 T00060006 =
2018-02-20 01:11 METAR KMLT 200611Z AUTO 00000KT 1 1/4SM BR BKN003 BKN035 OVC060 01/01 A3023 RMK
                 AO2 T00060006 =
2018-02-20 01:01 METAR KMLT 200601Z AUTO 00000KT 1 1/4SM BR SCT003 BKN037 OVC060 01/01 A3023 RMK
                 AO2 T00060006 =
2018-02-20 00:53 METAR KMLT 200553Z AUTO 00000KT 1 3/4SM BR BKN003 OVC037 01/01 A3023 RMK AO2
                 SLP246 60002 T00060006 10028 20006 58006 =
2018-02-20 00:41 METAR KMLT 200541Z AUTO 00000KT 2SM BR BKN003 OVC039 01/01 A3022 RMK AO2
                 T00060006 =
2018-02-20 00:37 METAR KMLT 200537Z AUTO 00000KT 1 1/2SM BR SCT003 OVC039 01/01 A3023 RMK AO2
                 T00060006 =
2018-02-20 00:28 METAR KMLT 200528Z AUTO 00000KT 2SM BR FEW003 OVC039 01/01 A3024 RMK AO2
                 T00060006 =
2018-02-20 00:22 METAR KMLT 200522Z AUTO 00000KT 1 1/2SM BR OVC039 01/01 A3024 RMK AO2 T00060006
                 =
2018-02-20 00:18 METAR KMLT 200518Z AUTO 00000KT 3/4SM BR OVC040 01/01 A3024 RMK AO2 T00060006 =
2018-02-20 00:02 METAR KMLT 200502Z AUTO 00000KT 1SM BR OVC040 01/01 A3023 RMK AO2 T00060006 =
2018-02-19 23:53 METAR KMLT 200453Z AUTO 00000KT 1 3/4SM BR FEW005 OVC040 01/01 A3023 RMK AO2
                 SLP248 T00060006 400611172 =
2018-02-19 23:48 METAR KMLT 200448Z AUTO 00000KT 3SM BR SCT005 OVC040 01/01 A3024 RMK AO2 =
2018-02-19 23:40 METAR KMLT 200440Z AUTO 00000KT 2 1/2SM BR BKN005 OVC040 01/01 A3024 RMK AO2
                 T00060006 =
2018-02-19 23:09 METAR KMLT 200409Z AUTO 00000KT 3SM BR BKN003 OVC042 01/01 A3024 RMK AO2 CIG
                 002V006 T00110011 =
2018-02-19 23:02 METAR KMLT 200402Z AUTO 00000KT 3SM BR BKN005 OVC043 01/01 A3024 RMK AO2 CIG
                 002V006 T00110006 =
2018-02-19 22:53 METAR KMLT 200353Z AUTO 00000KT 4SM BR SCT005 OVC043 01/01 A3024 RMK AO2
                 RAE02UPB02E10 SLP251 P0000 T00110011 =
2018-02-19 22:50 METAR KMLT 200350Z AUTO 00000KT 3SM BR SCT005 OVC041 01/01 A3024 RMK AO2
                 RAE02UPB02E10 P0000 =
2018-02-19 22:45 METAR KMLT 200345Z AUTO 00000KT 3SM BR BKN005 BKN009 OVC044 01/01 A3024 RMK AO2
                 RAE02UPB02E10 P0000 T00110011 =
2018-02-19 22:24 METAR KMLT 200324Z AUTO 10003KT 4SM BR BKN009 OVC036 01/01 A3024 RMK AO2
                 RAE02UPB02E10 P0000 T00110011 =
2018-02-19 22:13 METAR KMLT 200313Z AUTO 07004KT 2 1/2SM BR BKN008 OVC016 01/01 A3025 RMK AO2
                 RAE02UPB02E10 P0000 T00060006 =
2018-02-19 22:01 METAR KMLT 200301Z AUTO 10003KT 2 1/2SM -RA BR BKN010 BKN016 OVC042 01/01 A3024
                 RMK AO2 P0000 T00110011 =
2018-02-19 21:53 METAR KMLT 200253Z AUTO 08004KT 2 1/2SM -RA BR FEW012 SCT018 OVC044 01/01 A3025
                 RMK AO2 SLP252 P0001 60002 T00110011 56007 =
2018-02-19 20:53 METAR KMLT 200153Z AUTO 00000KT 8SM -RA OVC060 02/01 A3026 RMK AO2 RAB24 SLP257
                 P0001 T00220006 =
2018-02-19 19:53 METAR KMLT 200053Z AUTO VRB05KT 10SM BKN080 BKN120 02/M01 A3026 RMK AO2 SLP258
                 T00221011 =
2018-02-19 18:53 METAR KMLT 192353Z AUTO 12004KT 10SM CLR 02/M02 A3027 RMK AO2 SLP262 T00171022
                 10061 20011 58004 =
2018-02-19 17:53 METAR KMLT 192253Z AUTO 13006KT 10SM CLR 03/M02 A3027 RMK AO2 SLP263 T00281017 =
2018-02-19 16:53 METAR KMLT 192153Z AUTO 17004KT 10SM CLR 04/M02 A3028 RMK AO2 SLP268 T00391017 =
2018-02-19 15:53 METAR KMLT 192053Z AUTO 22008KT 10SM FEW045 06/M04 A3028 RMK AO2 SLP265
                 T00611039 56020 =
2018-02-19 14:53 METAR KMLT 191953Z AUTO 19008KT 150V250 10SM BKN044 06/M03 A3028 RMK AO2 SLP266
                 T00561033 =
2018-02-19 13:53 METAR KMLT 191853Z AUTO VRB06G18KT 10SM SCT043 05/M03 A3030 RMK AO2 SLP272
                 T00501033 =
2018-02-19 12:53 METAR KMLT 191753Z AUTO 18010G22KT 140V230 10SM CLR 04/M04 A3034 RMK AO2 SLP286
                 T00441039 10044 21167 56048 =
2018-02-19 11:53 METAR KMLT 191653Z AUTO 10SM FEW033 03/M04 A3037 RMK AO2 SLP297 T00331039 =
2018-02-19 10:53 METAR KMLT 191553Z AUTO VRB04KT 10SM SCT034 01/M06 A3044 RMK AO2 SLP321
                 T00111061 =
2018-02-19 09:53 METAR KMLT 191453Z AUTO 17007G16KT 10SM CLR M01/M08 A3049 RMK AO2 SLP335
                 T10111078 58010 =
2018-02-19 08:53 METAR KMLT 191353Z AUTO 13004KT 9SM CLR M08/M09 A3050 RMK AO2 SLP341 T10781089 =
2018-02-19 07:53 METAR KMLT 191253Z AUTO 00000KT 7SM SCT110 M13/M14 A3050 RMK AO2 SLP342
                 T11331139 =
2018-02-19 06:53 METAR KMLT 191153Z AUTO 00000KT 10SM CLR M16/M17 A3051 RMK AO2 SLP347 I6000
                 T11561167 11111 21172 53013 =
2018-02-19 05:53 METAR KMLT 191053Z AUTO 00000KT 10SM CLR M16/M17 A3048 RMK AO2 SLP337 T11611172
                 =
2018-02-19 04:53 METAR KMLT 190953Z AUTO 00000KT 10SM CLR M16/M17 A3050 RMK AO2 SLP340 T11561167
                 =

Support USWX by starting your Amazon purchase here.